Time;durP1;ratioP1;P1;durP2;ratioP2;P2;SDS_P1;SDS_P2;PMS_P1;PMS_P2;Temp;Humidity;BMP_temperature;BMP_pressure;BME280_temperature;BME280_humidity;BME280_pressure;Samples;Min_cycle;Max_cycle;Signal;HPM_P1;HPM_P2
2021/12/23 00:00:41;;;;;;;29.27;19.17;;;-0.40;99.90;;;;;;5042338;28;20283;-72
2021/12/23 00:03:08;;;;;;;28.33;17.73;;;-0.40;99.90;;;;;;5044812;28;20203;-72
2021/12/23 00:05:35;;;;;;;33.10;18.17;;;-0.40;99.90;;;;;;5045344;28;20216;-73
2021/12/23 00:08:02;;;;;;;28.25;17.67;;;-0.40;99.90;;;;;;5048401;28;20287;-70
2021/12/23 00:10:33;;;;;;;32.53;20.40;;;-0.40;99.90;;;;;;5048732;28;20235;-73
2021/12/23 00:12:59;;;;;;;33.55;19.13;;;-0.40;99.90;;;;;;5050567;28;20185;-70
2021/12/23 00:15:31;;;;;;;27.80;18.15;;;-0.50;99.90;;;;;;5049312;28;20185;-70
2021/12/23 00:18:05;;;;;;;38.28;19.75;;;-0.50;99.90;;;;;;5052656;28;20188;-70
2021/12/23 00:23:25;;;;;;;33.78;21.00;;;-0.40;99.90;;;;;;5054340;28;20207;-72
2021/12/23 00:26:00;;;;;;;32.38;18.58;;;-0.50;99.90;;;;;;5050168;28;20208;-71
2021/12/23 00:28:27;;;;;;;26.60;15.73;;;-0.50;99.90;;;;;;5047209;28;20216;-73
2021/12/23 00:30:54;;;;;;;31.20;20.88;;;-0.50;99.90;;;;;;5041475;28;20216;-71
2021/12/23 00:33:23;;;;;;;33.42;21.25;;;-0.50;99.90;;;;;;5048501;28;20189;-72
2021/12/23 00:35:50;;;;;;;31.40;20.33;;;-0.40;99.90;;;;;;5048142;28;20198;-71
2021/12/23 00:38:22;;;;;;;27.10;20.13;;;-0.40;99.90;;;;;;5048172;28;20200;-71
2021/12/23 00:40:49;;;;;;;30.33;20.85;;;-0.40;99.90;;;;;;5047016;28;20218;-71
2021/12/23 00:43:17;;;;;;;37.08;21.25;;;-0.40;99.90;;;;;;5047777;28;20188;-72
2021/12/23 00:45:44;;;;;;;30.67;18.60;;;-0.30;99.90;;;;;;5047934;28;20192;-72
2021/12/23 00:48:11;;;;;;;30.05;18.33;;;-0.30;99.90;;;;;;5047775;28;20219;-71
2021/12/23 00:50:38;;;;;;;33.72;19.90;;;-0.40;99.90;;;;;;5047235;28;20262;-71
2021/12/23 00:53:08;;;;;;;31.38;19.30;;;-0.40;99.90;;;;;;5045602;28;20219;-71
2021/12/23 00:55:35;;;;;;;33.15;19.98;;;-0.40;99.90;;;;;;5045558;28;20192;-71
2021/12/23 00:58:03;;;;;;;28.55;17.67;;;-0.30;99.90;;;;;;5047612;28;20203;-71
2021/12/23 01:00:32;;;;;;;32.13;20.23;;;-0.30;99.90;;;;;;5046869;28;20211;-71
2021/12/23 01:03:00;;;;;;;31.42;20.38;;;-0.30;99.90;;;;;;5043300;28;20205;-71
2021/12/23 01:05:28;;;;;;;30.95;18.75;;;-0.30;99.90;;;;;;5045597;28;20196;-71
2021/12/23 01:07:55;;;;;;;28.75;17.88;;;-0.30;99.90;;;;;;5047194;28;20216;-71
2021/12/23 01:10:24;;;;;;;26.30;17.85;;;-0.30;99.90;;;;;;5046686;28;20250;-71
2021/12/23 01:12:57;;;;;;;30.75;19.42;;;-0.20;99.90;;;;;;5047578;28;20188;-71
2021/12/23 01:18:14;;;;;;;32.40;20.05;;;-0.30;99.90;;;;;;5046372;28;20269;-71
2021/12/23 01:20:51;;;;;;;29.00;19.08;;;-0.20;99.90;;;;;;5039607;28;20208;-71
2021/12/23 01:23:20;;;;;;;30.35;19.08;;;-0.20;99.90;;;;;;5041562;28;20231;-72
2021/12/23 01:25:47;;;;;;;26.77;17.40;;;-0.30;99.90;;;;;;5047219;28;20356;-71
2021/12/23 01:28:14;;;;;;;31.38;18.95;;;-0.30;99.90;;;;;;5047375;28;20295;-72
2021/12/23 01:30:42;;;;;;;31.17;18.33;;;-0.20;99.90;;;;;;5042241;28;20231;-72
2021/12/23 01:33:10;;;;;;;26.17;17.00;;;-0.20;99.90;;;;;;5047263;28;20188;-72
2021/12/23 01:35:39;;;;;;;31.00;19.83;;;-0.20;99.90;;;;;;5046988;28;20212;-72
2021/12/23 01:38:07;;;;;;;34.20;20.30;;;-0.20;99.90;;;;;;5047071;28;20351;-72
2021/12/23 01:40:35;;;;;;;30.00;17.42;;;-0.30;99.90;;;;;;5045951;28;20232;-72
2021/12/23 01:43:03;;;;;;;26.73;18.45;;;-0.10;99.90;;;;;;5046731;28;20188;-72
2021/12/23 01:45:32;;;;;;;29.42;19.10;;;0.00;99.90;;;;;;5046368;28;20270;-72
2021/12/23 01:47:59;;;;;;;26.17;16.85;;;0.00;99.90;;;;;;5046637;28;20209;-71
2021/12/23 01:50:28;;;;;;;29.85;19.23;;;0.00;99.90;;;;;;5046184;28;20315;-72
2021/12/23 01:52:59;;;;;;;27.55;19.00;;;0.00;99.90;;;;;;5042339;28;20193;-72
2021/12/23 01:55:27;;;;;;;27.77;17.35;;;0.00;99.90;;;;;;5044293;28;20192;-72
2021/12/23 01:57:56;;;;;;;29.27;19.13;;;0.10;99.90;;;;;;5046244;28;20216;-72
2021/12/23 02:00:25;;;;;;;31.13;18.15;;;0.10;99.90;;;;;;5045587;28;20208;-71
2021/12/23 02:02:53;;;;;;;27.55;16.95;;;0.20;99.90;;;;;;5046678;28;20186;-71
2021/12/23 02:05:20;;;;;;;25.77;18.27;;;0.20;99.90;;;;;;5045649;28;20184;-72
2021/12/23 02:07:48;;;;;;;30.48;20.08;;;0.20;99.90;;;;;;5040241;28;20244;-71
2021/12/23 02:10:17;;;;;;;26.25;18.60;;;0.10;99.90;;;;;;5045594;28;20223;-72
2021/12/23 02:12:45;;;;;;;32.33;18.27;;;0.10;99.90;;;;;;5045729;28;20200;-71
2021/12/23 02:15:13;;;;;;;26.88;18.02;;;0.10;99.90;;;;;;5046427;28;20193;-71
2021/12/23 02:17:41;;;;;;;30.20;18.55;;;0.20;99.90;;;;;;5046197;28;20199;-71
2021/12/23 02:20:10;;;;;;;32.05;18.88;;;0.10;99.90;;;;;;5045137;28;20199;-71
2021/12/23 02:22:39;;;;;;;31.13;18.42;;;0.20;99.90;;;;;;5045773;28;20202;-71
2021/12/23 02:25:08;;;;;;;27.92;19.15;;;0.20;99.90;;;;;;5046344;28;20709;-71
2021/12/23 02:27:35;;;;;;;33.80;21.52;;;0.20;99.90;;;;;;5045556;28;20223;-71
2021/12/23 02:30:04;;;;;;;31.40;18.55;;;0.20;99.90;;;;;;5045295;28;20243;-71
2021/12/23 02:32:30;;;;;;;29.48;18.77;;;0.20;99.90;;;;;;5045053;28;20216;-71
2021/12/23 02:34:57;;;;;;;24.88;17.48;;;0.30;99.90;;;;;;5046053;28;20414;-71
2021/12/23 02:37:26;;;;;;;29.48;18.65;;;0.30;99.90;;;;;;5045849;28;20232;-71
2021/12/23 02:39:53;;;;;;;31.75;21.50;;;0.30;99.90;;;;;;5045362;28;20208;-72
2021/12/23 02:42:20;;;;;;;30.63;18.45;;;0.20;99.90;;;;;;5046108;28;20192;-72
2021/12/23 02:44:47;;;;;;;28.23;18.48;;;0.20;99.90;;;;;;5046235;28;20188;-71
2021/12/23 02:47:13;;;;;;;31.42;19.08;;;0.10;99.90;;;;;;5042371;28;20234;-72
2021/12/23 02:49:41;;;;;;;30.90;20.13;;;0.10;99.90;;;;;;5045446;28;20192;-71
2021/12/23 02:52:09;;;;;;;30.10;18.92;;;0.20;99.90;;;;;;5045724;28;20410;-71
2021/12/23 02:54:37;;;;;;;29.27;19.75;;;0.20;99.90;;;;;;5043084;28;20190;-70
2021/12/23 02:57:05;;;;;;;33.13;22.88;;;0.20;99.90;;;;;;5045502;28;20218;-71
2021/12/23 02:59:32;;;;;;;30.67;18.23;;;0.20;99.90;;;;;;5045150;28;20271;-70
2021/12/23 03:02:00;;;;;;;27.65;18.58;;;0.10;99.90;;;;;;5045184;28;20284;-70
2021/12/23 03:04:27;;;;;;;34.60;18.73;;;0.10;99.90;;;;;;5044711;28;20188;-71
2021/12/23 03:06:56;;;;;;;32.60;20.98;;;0.00;99.90;;;;;;5044916;28;20200;-73
2021/12/23 03:09:23;;;;;;;36.40;22.05;;;0.10;99.90;;;;;;5045304;28;20279;-70
2021/12/23 03:11:52;;;;;;;30.20;19.48;;;0.10;99.90;;;;;;5036020;28;20258;-71
2021/12/23 03:14:19;;;;;;;31.42;19.42;;;0.20;99.90;;;;;;5043549;28;20200;-70
2021/12/23 03:16:47;;;;;;;28.73;20.67;;;0.20;99.90;;;;;;5045569;28;20231;-71
2021/12/23 03:19:14;;;;;;;35.08;20.33;;;0.10;99.90;;;;;;5046088;28;20192;-72
2021/12/23 03:21:44;;;;;;;40.67;21.25;;;0.10;99.90;;;;;;5048747;28;20216;-72
2021/12/23 03:24:11;;;;;;;33.85;21.65;;;0.20;99.90;;;;;;5049897;28;20220;-71
2021/12/23 03:26:38;;;;;;;35.05;20.65;;;0.20;99.90;;;;;;5049248;28;20291;-71
2021/12/23 03:29:11;;;;;;;32.83;20.70;;;0.20;99.90;;;;;;5049547;28;20238;-72
2021/12/23 03:31:38;;;;;;;29.92;20.08;;;0.20;99.90;;;;;;5048835;28;20224;-72
2021/12/23 03:34:05;;;;;;;28.27;18.80;;;0.20;99.90;;;;;;5049577;28;20269;-71
2021/12/23 03:36:32;;;;;;;30.48;20.05;;;0.30;99.90;;;;;;5049145;28;20208;-71
2021/12/23 03:39:00;;;;;;;30.63;20.38;;;0.30;99.90;;;;;;5044425;28;20231;-71
2021/12/23 03:41:27;;;;;;;31.08;20.23;;;0.30;99.90;;;;;;5046403;28;20216;-71
2021/12/23 03:43:54;;;;;;;35.10;22.35;;;0.10;99.90;;;;;;5049395;28;20196;-70
2021/12/23 03:46:22;;;;;;;30.80;17.85;;;0.20;99.90;;;;;;5046378;28;20695;-70
2021/12/23 03:48:50;;;;;;;31.77;20.58;;;0.20;99.90;;;;;;5049244;28;20237;-69
2021/12/23 03:51:19;;;;;;;36.45;21.38;;;0.20;99.90;;;;;;5048611;28;20219;-71
2021/12/23 03:53:46;;;;;;;33.08;22.10;;;0.20;99.90;;;;;;5049023;28;20362;-71
2021/12/23 03:56:14;;;;;;;33.33;20.65;;;0.20;99.90;;;;;;5049193;28;20361;-71
2021/12/23 03:58:41;;;;;;;30.83;20.40;;;0.20;99.90;;;;;;5048526;28;20231;-71
2021/12/23 04:01:08;;;;;;;37.63;21.85;;;0.20;99.90;;;;;;5048285;28;20212;-71
2021/12/23 04:03:36;;;;;;;32.85;21.75;;;0.20;99.90;;;;;;5049017;28;20189;-71
2021/12/23 04:06:04;;;;;;;28.27;19.63;;;0.20;99.90;;;;;;5049238;28;20344;-71
2021/12/23 04:08:31;;;;;;;31.55;19.42;;;0.20;99.90;;;;;;5048814;28;20291;-70
2021/12/23 04:11:00;;;;;;;34.10;22.17;;;0.20;99.90;;;;;;5045924;28;20284;-71
2021/12/23 04:13:27;;;;;;;31.73;20.80;;;0.20;99.90;;;;;;5046654;28;20419;-71
2021/12/23 04:15:54;;;;;;;28.13;20.50;;;0.20;99.90;;;;;;5048662;28;20185;-72
2021/12/23 04:18:21;;;;;;;31.73;21.67;;;0.30;99.90;;;;;;5045013;28;20224;-72
2021/12/23 04:20:54;;;;;;;39.33;22.45;;;0.30;99.90;;;;;;5048192;28;20208;-71
2021/12/23 04:23:21;;;;;;;33.42;21.55;;;0.30;99.90;;;;;;5047327;28;20438;-71
2021/12/23 04:25:49;;;;;;;28.63;19.77;;;0.30;99.90;;;;;;5046705;28;20203;-72
2021/12/23 04:28:16;;;;;;;28.83;21.70;;;0.30;99.90;;;;;;5044678;28;20239;-71
2021/12/23 04:30:43;;;;;;;32.70;20.65;;;0.40;99.90;;;;;;5041667;28;20302;-70
2021/12/23 04:33:11;;;;;;;31.15;21.35;;;0.30;99.90;;;;;;5048217;28;20200;-70
2021/12/23 04:35:38;;;;;;;35.67;20.35;;;0.30;99.90;;;;;;5035614;28;20362;-71
2021/12/23 04:38:06;;;;;;;35.17;20.45;;;0.30;99.90;;;;;;5048055;28;20391;-71
2021/12/23 04:40:36;;;;;;;33.85;19.77;;;0.30;99.90;;;;;;5047169;28;20259;-71
2021/12/23 04:43:04;;;;;;;29.77;19.48;;;0.30;99.90;;;;;;5048166;28;20188;-70
2021/12/23 04:45:31;;;;;;;36.85;21.60;;;0.20;99.90;;;;;;5047848;28;20450;-71
2021/12/23 04:47:58;;;;;;;30.17;22.10;;;0.20;99.90;;;;;;5048110;28;20226;-71
2021/12/23 04:50:25;;;;;;;33.00;21.13;;;0.20;99.90;;;;;;5037012;28;20263;-71
2021/12/23 04:52:53;;;;;;;34.35;19.88;;;0.20;99.90;;;;;;5048218;28;20228;-72
2021/12/23 04:55:22;;;;;;;29.20;20.20;;;0.30;99.90;;;;;;5047772;28;20188;-71
2021/12/23 04:57:52;;;;;;;32.38;22.50;;;0.30;99.90;;;;;;5046071;28;20231;-71
2021/12/23 05:00:22;;;;;;;27.75;19.25;;;0.40;99.90;;;;;;5047120;28;20367;-71
2021/12/23 05:02:49;;;;;;;39.22;21.80;;;0.40;99.90;;;;;;5047937;28;20203;-71
2021/12/23 05:05:17;;;;;;;30.77;18.92;;;0.40;99.90;;;;;;5047109;28;20197;-71
2021/12/23 05:07:44;;;;;;;30.65;20.98;;;0.40;99.90;;;;;;5044061;28;20193;-71
2021/12/23 05:10:14;;;;;;;28.75;19.70;;;0.40;99.90;;;;;;5047107;28;20226;-70
2021/12/23 05:12:46;;;;;;;31.48;21.25;;;0.40;99.90;;;;;;5047991;28;20203;-71
2021/12/23 05:15:21;;;;;;;31.67;19.90;;;0.40;99.90;;;;;;5048018;28;20216;-70
2021/12/23 05:17:49;;;;;;;32.45;20.48;;;0.40;99.90;;;;;;5044499;28;20192;-71
2021/12/23 05:20:18;;;;;;;27.60;18.70;;;0.40;99.90;;;;;;5047254;28;20212;-71
2021/12/23 05:22:45;;;;;;;26.65;19.27;;;0.40;99.90;;;;;;5046487;28;20219;-71
2021/12/23 05:25:12;;;;;;;30.17;18.65;;;0.50;99.90;;;;;;5049872;28;20192;-71
2021/12/23 05:27:43;;;;;;;34.35;18.90;;;0.60;99.90;;;;;;5051378;28;20423;-71
2021/12/23 05:30:13;;;;;;;27.23;18.92;;;0.60;99.90;;;;;;5048695;28;20235;-71
2021/12/23 05:32:41;;;;;;;33.42;21.15;;;0.50;99.90;;;;;;5039719;28;20410;-71
2021/12/23 05:35:09;;;;;;;29.33;20.15;;;0.50;99.90;;;;;;5047358;28;20193;-71
2021/12/23 05:37:36;;;;;;;31.50;22.00;;;0.50;99.90;;;;;;5045901;28;20200;-72
2021/12/23 05:40:03;;;;;;;27.35;20.83;;;0.60;99.90;;;;;;5045487;28;20228;-70
2021/12/23 05:42:31;;;;;;;27.60;19.17;;;0.60;99.90;;;;;;5044009;28;20200;-70
2021/12/23 05:44:59;;;;;;;27.80;18.88;;;0.60;99.90;;;;;;5046951;28;20264;-71
2021/12/23 05:47:26;;;;;;;32.33;20.95;;;0.60;99.90;;;;;;5045086;28;20215;-70
2021/12/23 05:49:53;;;;;;;27.05;18.67;;;0.60;99.90;;;;;;5045011;28;20247;-72
2021/12/23 05:52:20;;;;;;;30.77;19.38;;;0.60;99.90;;;;;;5046205;28;20189;-70
2021/12/23 05:54:47;;;;;;;33.42;22.48;;;0.60;99.90;;;;;;5046833;28;20212;-71
2021/12/23 05:57:14;;;;;;;31.23;19.52;;;0.50;99.90;;;;;;5041959;28;20198;-72
2021/12/23 05:59:41;;;;;;;34.17;22.02;;;0.40;99.90;;;;;;5046122;28;20224;-72
2021/12/23 06:02:09;;;;;;;30.88;22.90;;;0.50;99.90;;;;;;5040049;28;20562;-71
2021/12/23 06:04:37;;;;;;;31.27;21.88;;;0.50;99.90;;;;;;5044777;28;20272;-70
2021/12/23 06:07:04;;;;;;;30.25;20.48;;;0.70;99.90;;;;;;5046386;28;20245;-71
2021/12/23 06:09:31;;;;;;;32.67;20.80;;;0.70;99.90;;;;;;5038315;28;20208;-71
2021/12/23 06:11:58;;;;;;;35.38;20.83;;;0.70;99.90;;;;;;5041225;28;20236;-72
2021/12/23 06:14:25;;;;;;;30.70;20.27;;;0.60;99.90;;;;;;5042638;28;20392;-72
2021/12/23 06:16:52;;;;;;;25.77;18.42;;;0.70;99.90;;;;;;5046752;28;20279;-71
2021/12/23 06:19:20;;;;;;;29.88;18.85;;;0.60;99.90;;;;;;5046014;28;20204;-72
2021/12/23 06:21:47;;;;;;;33.63;18.50;;;0.70;99.90;;;;;;5034807;28;20490;-72
2021/12/23 06:24:14;;;;;;;31.02;20.50;;;0.80;99.90;;;;;;5041179;28;20403;-73
2021/12/23 06:26:41;;;;;;;31.25;20.38;;;0.90;99.90;;;;;;5041901;28;20199;-74
2021/12/23 06:29:08;;;;;;;31.70;20.77;;;0.90;99.90;;;;;;5046366;28;20291;-74
2021/12/23 06:31:35;;;;;;;29.33;20.38;;;0.90;99.90;;;;;;5045595;28;20333;-74
2021/12/23 06:34:02;;;;;;;30.50;21.60;;;0.90;99.90;;;;;;5040659;28;20216;-76
2021/12/23 06:36:30;;;;;;;32.17;19.58;;;0.80;99.90;;;;;;5036289;28;20234;-72
2021/12/23 06:38:58;;;;;;;28.83;19.45;;;0.90;99.90;;;;;;5029944;28;20205;-74
2021/12/23 06:41:26;;;;;;;28.15;20.05;;;0.90;99.90;;;;;;5037267;28;20224;-72
2021/12/23 06:43:52;;;;;;;29.75;21.42;;;1.00;99.90;;;;;;5047592;28;20377;-72
2021/12/23 06:46:19;;;;;;;26.98;18.17;;;0.90;99.90;;;;;;5046712;28;20215;-75
2021/12/23 06:48:46;;;;;;;29.67;20.52;;;1.10;99.90;;;;;;5045575;28;20200;-74
2021/12/23 06:51:13;;;;;;;27.63;18.98;;;1.10;99.90;;;;;;5045842;28;20250;-74
2021/12/23 06:53:42;;;;;;;30.90;20.35;;;1.00;99.90;;;;;;5042960;28;20220;-71
2021/12/23 06:56:11;;;;;;;32.42;20.60;;;0.90;99.90;;;;;;5045986;28;20220;-74
2021/12/23 06:58:39;;;;;;;28.77;19.42;;;1.00;99.90;;;;;;5046011;28;20285;-75
2021/12/23 07:01:06;;;;;;;31.23;20.63;;;1.10;99.90;;;;;;5045615;28;20321;-73
2021/12/23 07:03:50;;;;;;;31.67;21.48;;;1.10;99.90;;;;;;5046317;28;20247;-74
2021/12/23 07:06:22;;;;;;;29.63;20.90;;;1.10;99.90;;;;;;5045708;28;20209;-73
2021/12/23 07:08:52;;;;;;;32.95;20.08;;;1.30;99.90;;;;;;5046066;28;20224;-75
2021/12/23 07:11:19;;;;;;;29.98;19.85;;;1.60;99.90;;;;;;5045624;28;20302;-74
2021/12/23 07:13:46;;;;;;;25.77;18.58;;;1.50;99.90;;;;;;5046023;28;20207;-72
2021/12/23 07:16:13;;;;;;;32.63;21.20;;;1.80;99.90;;;;;;5040092;28;20220;-73
2021/12/23 07:18:41;;;;;;;27.88;19.63;;;1.70;99.90;;;;;;5041567;28;20227;-71
2021/12/23 07:21:08;;;;;;;27.08;19.80;;;1.70;99.90;;;;;;5043510;28;20478;-72
2021/12/23 07:23:35;;;;;;;30.33;20.55;;;1.80;99.90;;;;;;5045678;28;20220;-72
2021/12/23 07:26:03;;;;;;;34.05;21.38;;;1.70;99.90;;;;;;5044477;28;20219;-73
2021/12/23 07:28:30;;;;;;;30.08;22.08;;;1.70;99.90;;;;;;5044881;28;20204;-74
2021/12/23 07:30:58;;;;;;;34.80;20.95;;;1.60;99.90;;;;;;5044258;28;20208;-72
2021/12/23 07:33:24;;;;;;;33.20;20.83;;;1.60;99.90;;;;;;5039744;28;20203;-73
2021/12/23 07:35:51;;;;;;;28.38;19.83;;;1.50;99.90;;;;;;5042169;28;20247;-73
2021/12/23 07:38:36;;;;;;;33.83;22.00;;;1.40;99.90;;;;;;5039218;28;20304;-72
2021/12/23 07:41:04;;;;;;;32.63;20.30;;;1.30;99.90;;;;;;5037654;28;20280;-75
2021/12/23 07:43:55;;;;;;;28.67;20.20;;;1.30;99.90;;;;;;5040990;28;20217;-74
2021/12/23 07:46:22;;;;;;;30.08;21.38;;;1.40;99.90;;;;;;5034072;28;20247;-72
2021/12/23 07:48:50;;;;;;;33.75;21.92;;;1.40;99.90;;;;;;5039190;28;20543;-76
2021/12/23 07:51:17;;;;;;;31.83;22.38;;;1.30;99.90;;;;;;5045903;28;20244;-76
2021/12/23 07:53:49;;;;;;;30.13;20.45;;;1.20;99.90;;;;;;5049116;28;20196;-74
2021/12/23 07:57:03;;;;;;;33.38;20.45;;;1.10;99.90;;;;;;5050997;28;20211;-74
2021/12/23 07:59:31;;;;;;;31.42;21.30;;;1.20;99.90;;;;;;5051639;28;20219;-75
2021/12/23 08:01:59;;;;;;;36.88;22.77;;;1.20;99.90;;;;;;5050176;28;20214;-73
2021/12/23 08:04:27;;;;;;;34.35;21.05;;;1.20;99.90;;;;;;5046563;28;20242;-74
2021/12/23 08:06:57;;;;;;;29.30;21.23;;;1.30;99.90;;;;;;5046215;28;20180;-75
2021/12/23 08:09:24;;;;;;;28.48;21.70;;;1.30;99.90;;;;;;5043043;28;20222;-73
2021/12/23 08:11:52;;;;;;;30.75;22.38;;;1.50;99.90;;;;;;5048691;28;20213;-72
2021/12/23 08:14:19;;;;;;;35.70;23.38;;;1.50;99.90;;;;;;5045801;28;20187;-74
2021/12/23 08:16:48;;;;;;;33.55;23.83;;;1.50;99.90;;;;;;5040874;28;20205;-76
2021/12/23 08:19:15;;;;;;;32.72;20.90;;;1.60;99.90;;;;;;5044612;28;20185;-74
2021/12/23 08:21:42;;;;;;;27.33;20.40;;;1.60;99.90;;;;;;5033317;28;20223;-74
2021/12/23 08:24:09;;;;;;;32.63;21.48;;;1.60;99.90;;;;;;5044009;28;20193;-73
2021/12/23 08:26:41;;;;;;;30.23;23.38;;;1.50;99.90;;;;;;5039837;28;20208;-71
2021/12/23 08:29:09;;;;;;;30.27;21.10;;;1.50;99.90;;;;;;5043055;28;20230;-72
2021/12/23 08:31:37;;;;;;;28.70;21.67;;;1.50;99.90;;;;;;5041336;28;20220;-73
2021/12/23 08:34:05;;;;;;;36.45;24.52;;;1.50;99.90;;;;;;5048994;28;20215;-72
2021/12/23 08:36:33;;;;;;;36.35;24.40;;;1.60;99.90;;;;;;5048401;28;20193;-73
2021/12/23 08:39:00;;;;;;;35.42;24.83;;;1.50;99.90;;;;;;5047574;28;20211;-72
2021/12/23 08:41:27;;;;;;;31.77;22.67;;;1.50;99.90;;;;;;5042744;28;20255;-73
2021/12/23 08:43:54;;;;;;;35.10;24.95;;;1.60;99.90;;;;;;5039174;28;20216;-73
2021/12/23 08:46:21;;;;;;;56.83;40.95;;;1.60;99.90;;;;;;5038187;28;20303;-72
2021/12/23 08:48:48;;;;;;;33.72;24.50;;;1.60;99.90;;;;;;5045074;28;20292;-73
2021/12/23 08:51:17;;;;;;;37.95;24.92;;;1.60;99.90;;;;;;5047402;28;20239;-74
2021/12/23 08:53:44;;;;;;;30.23;22.27;;;1.60;99.90;;;;;;5044360;28;20220;-73
2021/12/23 08:56:11;;;;;;;32.80;22.38;;;1.60;99.90;;;;;;5047850;28;20220;-72
2021/12/23 08:58:40;;;;;;;36.20;23.05;;;1.50;99.90;;;;;;5042802;28;20435;-73
2021/12/23 09:01:08;;;;;;;31.35;21.70;;;1.50;99.90;;;;;;5041606;28;20266;-72
2021/12/23 09:03:35;;;;;;;36.97;23.73;;;1.50;99.90;;;;;;5046859;28;20195;-73
2021/12/23 09:06:05;;;;;;;32.97;21.67;;;1.50;99.90;;;;;;5047565;28;20188;-73
2021/12/23 09:08:33;;;;;;;28.80;19.73;;;1.50;99.90;;;;;;5048020;28;20361;-74
2021/12/23 09:11:01;;;;;;;30.67;20.48;;;1.60;99.90;;;;;;5045052;28;20338;-76
2021/12/23 09:13:29;;;;;;;31.38;20.42;;;1.50;99.90;;;;;;5046310;28;20309;-73
2021/12/23 09:15:56;;;;;;;27.90;20.40;;;1.70;99.90;;;;;;5047465;28;20231;-74
2021/12/23 09:18:24;;;;;;;35.95;21.77;;;1.70;99.90;;;;;;5047552;28;20434;-75
2021/12/23 09:20:57;;;;;;;38.33;23.13;;;1.70;99.90;;;;;;5046767;28;20209;-75
2021/12/23 09:23:25;;;;;;;28.00;20.38;;;1.70;99.90;;;;;;5047606;28;20211;-74
2021/12/23 09:25:54;;;;;;;32.90;22.08;;;1.80;99.90;;;;;;5047503;28;20184;-74
2021/12/23 09:28:29;;;;;;;29.65;20.95;;;1.70;99.90;;;;;;5043505;28;20259;-73
2021/12/23 09:33:43;;;;;;;29.33;20.40;;;2.00;99.90;;;;;;5043698;28;20195;-73
2021/12/23 09:36:11;;;;;;;35.20;21.73;;;2.00;99.90;;;;;;5046590;28;20235;-72
2021/12/23 09:38:38;;;;;;;23.73;18.83;;;2.00;99.90;;;;;;5046655;28;20195;-72
2021/12/23 09:41:10;;;;;;;28.92;19.55;;;2.00;99.90;;;;;;5045980;28;20566;-72
2021/12/23 09:43:40;;;;;;;27.83;20.35;;;2.00;99.90;;;;;;5046787;28;20230;-74
2021/12/23 09:46:08;;;;;;;28.70;21.55;;;1.90;99.90;;;;;;5042517;28;20195;-73
2021/12/23 09:48:36;;;;;;;29.67;20.92;;;1.90;99.90;;;;;;5046096;28;20211;-74
2021/12/23 09:51:05;;;;;;;34.53;22.05;;;1.90;99.90;;;;;;5045578;28;20291;-73
2021/12/23 09:53:34;;;;;;;31.48;20.85;;;1.90;99.90;;;;;;5046138;28;20229;-74
2021/12/23 09:56:02;;;;;;;32.53;19.90;;;1.80;99.90;;;;;;5040420;28;20314;-73
2021/12/23 09:58:30;;;;;;;30.10;21.73;;;1.80;99.90;;;;;;5046176;28;20192;-72
2021/12/23 10:00:59;;;;;;;33.78;22.13;;;2.00;99.90;;;;;;5044868;28;20208;-73
2021/12/23 10:03:27;;;;;;;28.63;21.55;;;2.10;99.90;;;;;;5045873;28;20247;-72
2021/12/23 10:05:54;;;;;;;31.00;20.83;;;2.10;99.90;;;;;;5044911;28;20349;-73
2021/12/23 10:08:21;;;;;;;31.90;21.77;;;2.10;99.90;;;;;;5043176;28;20222;-75
2021/12/23 10:10:53;;;;;;;34.92;22.58;;;2.20;99.90;;;;;;5045217;28;20287;-74
2021/12/23 10:30:19;;;;;;;28.85;21.08;;;2.60;99.90;;;;;;5039007;28;20276;-75
2021/12/23 10:38:26;;;;;;;24.65;19.10;;;2.70;99.90;;;;;;5045982;28;20214;-79
2021/12/23 10:40:57;;;;;;;39.25;19.85;;;2.80;99.90;;;;;;5044646;28;20246;-73
2021/12/23 10:43:28;;;;;;;26.52;18.38;;;2.80;99.90;;;;;;5044986;28;20196;-74
2021/12/23 10:45:58;;;;;;;26.25;19.52;;;2.80;99.90;;;;;;5045920;28;20201;-73
2021/12/23 10:48:29;;;;;;;28.27;18.95;;;2.90;99.90;;;;;;5039015;28;20251;-72
2021/12/23 10:51:01;;;;;;;24.60;17.05;;;2.90;99.90;;;;;;5042571;28;20258;-74
2021/12/23 10:53:46;;;;;;;28.58;19.85;;;2.80;99.90;;;;;;5042290;28;20195;-73
2021/12/23 10:59:04;;;;;;;26.42;16.40;;;2.90;99.90;;;;;;5040145;28;20254;-73
2021/12/23 11:01:31;;;;;;;27.88;20.35;;;2.90;99.90;;;;;;5043535;28;20223;-72
2021/12/23 11:04:04;;;;;;;26.60;16.80;;;3.00;99.90;;;;;;5045558;28;20184;-73
2021/12/23 11:06:36;;;;;;;27.00;17.95;;;3.00;99.90;;;;;;5045497;28;20219;-73
2021/12/23 11:09:30;;;;;;;30.77;19.77;;;3.00;99.90;;;;;;5045808;28;20204;-72
2021/12/23 11:40:06;;;;;;;26.13;18.98;;;2.90;99.90;;;;;;5047328;28;20192;-72
2021/12/23 11:42:40;;;;;;;42.10;22.52;;;3.00;99.90;;;;;;5047820;28;20192;-74
2021/12/23 11:45:08;;;;;;;29.70;20.50;;;3.10;99.90;;;;;;5047803;28;20195;-71
2021/12/23 11:47:38;;;;;;;33.75;21.30;;;3.10;99.90;;;;;;5048634;28;20278;-72
2021/12/23 11:50:06;;;;;;;33.53;23.65;;;3.00;99.90;;;;;;5047947;28;20353;-72
2021/12/23 11:52:35;;;;;;;31.23;21.33;;;2.90;99.90;;;;;;5043494;28;20189;-72
2021/12/23 11:55:02;;;;;;;32.60;21.33;;;2.90;99.90;;;;;;5047745;28;20208;-72
2021/12/23 11:57:35;;;;;;;31.73;21.65;;;2.80;99.90;;;;;;5048614;28;20206;-71
2021/12/23 12:00:14;;;;;;;31.10;22.58;;;2.80;99.90;;;;;;5043139;28;20257;-73
2021/12/23 12:02:42;;;;;;;29.90;20.27;;;2.80;99.90;;;;;;5040507;28;20252;-76
2021/12/23 12:05:17;;;;;;;32.30;22.20;;;2.80;99.90;;;;;;5045440;28;20184;-73
2021/12/23 12:07:46;;;;;;;29.85;21.05;;;2.80;99.90;;;;;;5048737;28;20211;-74
2021/12/23 12:10:19;;;;;;;32.25;21.45;;;2.80;99.90;;;;;;5047551;28;20232;-74
2021/12/23 12:13:07;;;;;;;32.30;21.88;;;2.80;99.90;;;;;;5048573;28;20195;-74
2021/12/23 12:15:36;;;;;;;31.25;23.00;;;2.70;99.90;;;;;;5048489;28;20192;-73
2021/12/23 12:18:05;;;;;;;31.15;23.02;;;2.80;99.90;;;;;;5042849;28;20310;-73
2021/12/23 12:20:42;;;;;;;37.45;24.30;;;2.70;99.90;;;;;;5046592;28;20216;-74
2021/12/23 12:23:14;;;;;;;32.28;24.33;;;2.70;99.90;;;;;;5042017;28;20197;-73
2021/12/23 12:25:56;;;;;;;39.42;21.90;;;2.70;99.90;;;;;;5043179;28;20474;-73
2021/12/23 12:28:27;;;;;;;35.65;24.33;;;2.70;99.90;;;;;;5045601;28;20192;-73
2021/12/23 12:30:56;;;;;;;31.85;21.95;;;2.70;99.90;;;;;;5041682;28;20295;-74
2021/12/23 12:33:54;;;;;;;34.70;23.40;;;2.90;99.90;;;;;;5044551;28;20215;-74
2021/12/23 12:36:23;;;;;;;38.38;26.67;;;2.90;99.90;;;;;;5047553;28;20210;-74
2021/12/23 12:38:55;;;;;;;37.05;26.13;;;2.90;99.90;;;;;;5045027;28;20189;-74
2021/12/23 12:41:29;;;;;;;42.05;25.00;;;2.80;99.90;;;;;;5042812;28;20262;-75
2021/12/23 12:44:08;;;;;;;37.92;25.40;;;2.90;99.90;;;;;;5041646;28;20308;-74
2021/12/23 12:47:01;;;;;;;35.30;23.60;;;2.90;99.90;;;;;;5043468;28;20191;-73
2021/12/23 12:49:31;;;;;;;45.10;28.52;;;2.90;99.90;;;;;;5044410;28;20212;-75
2021/12/23 12:52:19;;;;;;;35.50;26.25;;;2.80;99.90;;;;;;5047031;28;20235;-74
2021/12/23 12:54:51;;;;;;;36.35;25.70;;;2.80;99.90;;;;;;5044499;28;20215;-74
2021/12/23 12:57:19;;;;;;;45.97;28.48;;;2.90;99.90;;;;;;5047746;28;20267;-75
2021/12/23 12:59:49;;;;;;;45.70;28.45;;;2.80;99.90;;;;;;5047173;28;20211;-76
2021/12/23 13:02:28;;;;;;;44.67;29.17;;;2.70;99.90;;;;;;5048125;28;20207;-75
2021/12/23 13:05:00;;;;;;;41.65;27.33;;;2.70;99.90;;;;;;5044991;28;20222;-75
2021/12/23 13:07:30;;;;;;;38.85;25.85;;;2.70;99.90;;;;;;5045018;28;20235;-75
2021/12/23 13:10:07;;;;;;;50.45;27.65;;;2.60;99.90;;;;;;5040898;28;20188;-75
2021/12/23 13:12:49;;;;;;;41.80;27.45;;;2.50;99.90;;;;;;5047280;28;20192;-76
2021/12/23 13:15:20;;;;;;;46.78;27.95;;;2.50;99.90;;;;;;5044913;28;20215;-75
2021/12/23 13:17:52;;;;;;;52.95;31.90;;;2.40;99.90;;;;;;5044920;28;20407;-75
2021/12/23 13:20:20;;;;;;;47.38;29.63;;;2.40;99.90;;;;;;5046604;28;20283;-77
2021/12/23 13:22:47;;;;;;;59.15;34.75;;;2.30;99.90;;;;;;5044494;28;20189;-76
2021/12/23 13:25:15;;;;;;;55.35;31.33;;;2.30;99.90;;;;;;5046067;28;20403;-76
2021/12/23 13:27:43;;;;;;;56.75;33.38;;;2.20;99.90;;;;;;5047773;28;20196;-77
2021/12/23 13:30:13;;;;;;;56.80;33.38;;;2.10;99.90;;;;;;5044430;28;20235;-74
2021/12/23 13:32:40;;;;;;;59.00;36.05;;;2.20;99.90;;;;;;5046919;28;20200;-76
2021/12/23 13:35:13;;;;;;;59.90;30.65;;;2.20;99.90;;;;;;5043895;28;20225;-78
2021/12/23 13:37:44;;;;;;;61.67;32.50;;;2.20;99.90;;;;;;5039278;28;20264;-77
2021/12/23 13:40:12;;;;;;;60.38;34.75;;;2.30;99.90;;;;;;5043412;28;20216;-75
2021/12/23 13:42:42;;;;;;;46.03;31.58;;;2.30;99.90;;;;;;5047223;28;20188;-76
2021/12/23 13:45:09;;;;;;;57.63;32.17;;;2.20;99.90;;;;;;5036512;28;20188;-76
2021/12/23 13:47:36;;;;;;;61.92;33.80;;;2.20;99.90;;;;;;5046139;28;20319;-76